Monday, May 30, 2016
04:55 UTC
  |  Log In   |  Register Free
Airport Search:

Rwj Airpark Airport
(54T)

Rwj Airpark Airport Diagram
No Airport Diagram Available

FAA data valid effective Mar 31 2016 - May 26 2016 (unless otherwise noted).

 
 
 
 
 
 
 
 
 
 
 
 
 
 
Current Aviation Weather for 54T

Weather Summary


Current weather conditions are not available for 54T - The nearest NOAA weather station is at EFD, (18.7 nm SW from 54T)

The most recent METAR observation for 54T was updated at: 12:50 UTC
METAR for 54T is not available. Closest METAR is for KHOU 23.6 nm NE
KHOU  (23.6 nm NE)   (most recent observation was updated at 30:03 UTC)
300353Z 00000KT 10SM FEW250 26/22 A3007 RMK AO2 SLP186 T02560222

KLVJ  (25.2 nm NE)   (most recent observation was updated at 30:03 UTC)
300353Z AUTO 00000KT 10SM CLR 26/23 A3008 RMK AO2 SLP185 T02610228

TAF for 54T is not available.
KEFD
300400Z 3004/3110 VRB06KT 9999 FEW010 BKN200 QNH2999INS BECMG 3015/3016 12009KT 9999 SCT030 BKN200 QNH2995INS BECMG 3101/3102 VRB06KT 9999 FEW020 SCT200 QNH2990INS TX31/3021Z TN22/3010Z

KHOU  (23.6 nm NE)   (most recent observation was updatred at 30:03 UTC)
AMD 300338Z 3004/3024 16005KT P6SM FEW025 SCT250 FM301000 VRB04KT P6SM FEW015 BKN150 FM301500 14005KT P6SM BKN025 BKN150 FM301700 15007KT P6SM BKN040 BKN150 FM302100 14008KT P6SM SCT040


KIAH  (29.0 nm SE)   (most recent observation was updatred at 30:03 UTC)
AMD 300338Z 3004/3106 16004KT P6SM FEW020 SCT250 FM301000 17004KT P6SM FEW015 SCT150 FM301400 14005KT P6SM BKN025 BKN150 FM301700 15007KT P6SM BKN045 BKN150 FM302200 14008KT P6SM SCT045 FM310200 15005KT P6SM SKC
GlobalAir.com is loading additional information.
 Current Weather at EFD
79.0 F° (26.0 C°)

Southeast winds at 5.8 mph
Pressure:
30.06 in
Humidity:
74%
Wind:
Southeast at 5.8 mph
Dew Point:
69.8 F° (21.0 C°)
Visibility:
10.00 mi
54T NOAA Radar




Find All Airport Services Find A Hotel Find A Rental Car Find A Golf Course Find A Restaurant $100 Hamburger



Airport Weather Forecast for 54T

Translated METAR for KEFD (0350 UTC)
METAR:
KEFD 300350Z 13003KT 10SM SCT150 26/21 A3008
Conditions at:
KEFD (Ellington, TX) observed 0350 UTC 30 May 2016
Temperature:
26°C (78.8°F)
Dewpoint:
21°C (69.8°F) [RH = 74]
Pressure:
30.08 inches Hg (1018.6 mb)
Winds:
from the SE (130 degrees) at 3.5 mph (3 knots: 1.5 m/s)
Visibility:
10 mile(s)
Ceiling:
at least 12,000 feet AGL
Clouds:
Scattered Clouds at 15,000 feet AGL
Remarks:

Translated TAF for KEFD (Ellington, TX) (0400 UTC)
TAF text:
KEFD 300400Z 3004/3110 VRB06KT 9999 FEW010 BKN200 QNH2999INS BECMG 3015/3016 12009KT 9999 SCT030 BKN200 QNH2995INS BECMG 3101/3102 VRB06KT 9999 FEW020 SCT200 QNH2990INS TX31/3021Z TN22/3010Z
Forecast period:
Monday May 30 2016 04:00 UTC - Tuesday May 31 2016 10:00 UTC
Forecast type:
FROM: standard forecast or significant change
Winds:
variable wind direction at 6.9 mph (6 knots: 3.1 m/s)
Visibility:
Ceiling:
20,000 feet AGL
20,000 feet AGL
at least 12,000 feet AGL
Clouds:
Few Clouds at 1,000 feet AGL
Broken Cloud Cover at 20,000 feet AGL
Scattered Clouds at 3,000 feet AGL
Broken Cloud Cover at 20,000 feet AGL
Few Clouds at 2,000 feet AGL
Scattered Clouds at 20,000 feet AGL
Weather:
no significant weather observed at this time
FBO's on the Field
FBO Company Facility Photos Services Transportation Aviation Fuel Prices: Prices include tax
Catering Weather Repair Courtesy Rental Type 100LL JetA JetA+ MOGAS 8087
 
Bay Area Aviation Inc

This FBO has not yet been rated
FS:Avfuel
Last Updated: May-09
Login to update fuel prices
SS:
Contact Bay Area Aviation IncMore FBO Information
 
Add another FBO Facility Photos Catering Weather Repair Courtesy Rental Type 100LL JetA JetA+ MOGAS 8087
Services Transportation Aviation Fuel Prices: Prices include tax


model-print
model-print
model-print
model-print